This is the latest recevied weather packets stored in our database for station/object W5HKR. If no packets are shown the sender has not sent any weather packets the latest 10 day(s).
| Time | Temp. | Humidity | Pressure | Rain* | Wind** | Luminosity | Snow |
|---|---|---|---|---|---|---|---|
| 1778123304 | 18.33° C | 80% | 984.8 hPa | 0 mm | - | - | - |
| 1778123004 | 18.33° C | 80% | 985.1 hPa | 0 mm | - | - | - |
| 1778122703 | 18.33° C | 91% | 990.6 hPa | 0 mm | - | - | - |
| 1778122404 | 18.33° C | 80% | 985.1 hPa | 0 mm | - | - | - |
| 1778122313 | 18.33° C | 91% | 990.6 hPa | 0 mm | - | - | - |
| 1778122104 | 18.33° C | 91% | 990.6 hPa | 0 mm | - | - | - |
| 1778121504 | 18.33° C | 80% | 984.8 hPa | 0 mm | - | - | - |
| 1778121234 | 18.33° C | 80% | 984.9 hPa | 0 mm | - | - | - |
| 1778121205 | 18.33° C | 80% | 984.6 hPa | 0 mm | - | - | - |
| 1778120902 | 18.33° C | 91% | 990.6 hPa | 0 mm | - | - | - |
| 1778120604 | 18.33° C | 80% | 984.1 hPa | 0 mm | - | - | - |
| 1778120304 | 18.33° C | 91% | 990.6 hPa | 0 mm | - | - | - |
| 1778120155 | 18.33° C | 80% | 984.6 hPa | 0 mm | - | - | - |
| 1778120003 | 18.33° C | 91% | 990.6 hPa | 0 mm | - | - | - |
| 1778119705 | 18.89° C | 80% | 984.4 hPa | 0 mm | - | - | - |
| 1778119402 | 18.33° C | 91% | 990.6 hPa | 0 mm | - | - | - |
| 1778119074 | 18.33° C | 91% | 990.6 hPa | 0 mm | - | - | - |
| 1778118804 | 18.89° C | 79% | 983.7 hPa | 0 mm | - | - | - |
| 1778118503 | 18.33° C | 91% | 990.6 hPa | 0 mm | - | - | - |
| 1778118203 | 18.33° C | 91% | 990.6 hPa | 0 mm | - | - | - |
| 1778117995 | 18.89° C | 79% | 983.7 hPa | 0 mm | - | - | - |
| 1778117903 | 18.89° C | 79% | 984.1 hPa | 0 mm | - | - | - |
| 1778117604 | 18.89° C | 78% | 984.1 hPa | 0 mm | - | - | - |
| 1778117303 | 18.89° C | 78% | 983.7 hPa | 0 mm | - | - | - |
| 1778117003 | 19.44° C | 78% | 983.7 hPa | 0 mm | - | - | - |
* Rain latest hour (hover to see other rain measurements)
** Current wind speed in m/s (hover to see current wind gust speed)